MSC Poh Lin — H8FC — position and weather

sailwx.info

Track history (hours):
 
Tides and Currents Weather Stations Pressure Air Temp Water Temp Dewpoint Dewpoint Depression Visibility Wind Speed Wind Dir Waves Ship Positions

MSC Poh Lin

Last reported at 2014-Oct-24 01:31 UTC. Time now 2014-Nov-01 09:03 UTC.
Position N 30°54' W 117°12'.
Warning: this ship's position is 8 days out of date.

Length 294 m; draft 13.5 m.

Type: Ship (hazmat cat A). MMSI: 357405000.

Date/timePositionNaut miles runAvg speedWind from/ knotsBaromVisibWave heightAir tempDewpointWater temp
2014-Oct-24 01:31N 30°54' W 117°12'1919.5
2014-Oct-24 00:33N 31°12' W 117°20'1919.5
2014-Oct-23 23:33N 31°30' W 117°27'1919.4
2014-Oct-23 22:33N 31°48' W 117°35'1919.2
2014-Oct-23 21:33N 32°07' W 117°41'1919.2
2014-Oct-23 20:33N 32°26' W 117°44'1817.6
2014-Oct-23 19:33N 32°44' W 117°46'1616.4
2014-Oct-23 18:33N 32°60' W 117°49'10 9.7
2014-Oct-23 17:33N 33°08' W 117°56'8 8.2
2014-Oct-23 16:33N 33°14' W 118°02'8 8.2
2014-Oct-23 15:33N 33°21' W 118°07'8 8.4
2014-Oct-23 14:33N 33°29' W 118°10'8 8.2
2014-Oct-23 13:33N 33°37' W 118°12'8 7.5
2014-Oct-23 12:33N 33°44' W 118°13'2 2.1
2014-Oct-23 11:33N 33°46' W 118°14'0 0.0
2014-Oct-23 10:33N 33°46' W 118°14'0 0.0
2014-Oct-23 09:32N 33°46' W 118°14'0 0.0
2014-Oct-23 08:32N 33°46' W 118°14'0 0.0
2014-Oct-23 07:32N 33°46' W 118°14'0 0.0
2014-Oct-23 06:32N 33°46' W 118°14'0 0.0
2014-Oct-23 05:32N 33°46' W 118°14'0 0.0
2014-Oct-23 04:32N 33°46' W 118°14'0 0.0
2014-Oct-23 03:32N 33°46' W 118°14'0 0.0
2014-Oct-23 02:32N 33°46' W 118°14'0 0.0
2014-Oct-23 01:32N 33°46' W 118°14'0 0.0
2014-Oct-23 00:32N 33°46' W 118°14'0 0.0
2014-Oct-22 23:32N 33°46' W 118°14'0 0.0
2014-Oct-22 22:32N 33°46' W 118°14'0 0.0
2014-Oct-22 21:32N 33°46' W 118°14'0 0.0
2014-Oct-22 20:32N 33°46' W 118°14'0 0.0
2014-Oct-22 19:32N 33°46' W 118°14'0 0.0
2014-Oct-22 18:23N 33°46' W 118°14'0 0.0
2014-Oct-22 17:32N 33°46' W 118°14'0 0.0
2014-Oct-22 16:32N 33°46' W 118°14'0 0.0
2014-Oct-22 15:32N 33°46' W 118°14'0 0.0
2014-Oct-22 14:32N 33°46' W 118°14'0 0.0
2014-Oct-22 13:32N 33°46' W 118°14'1 1.1
2014-Oct-22 12:33N 33°46' W 118°13'3 2.7
2014-Oct-22 11:33N 33°43' W 118°11'8 7.9
2014-Oct-22 10:32N 33°36' W 118°15'8 8.3
2014-Oct-22 09:33N 33°36' W 118°25'9 8.6
2014-Oct-22 08:34N 33°37' W 118°35'9 8.9
2014-Oct-22 07:33N 33°37' W 118°46'1110.9
2014-Oct-22 06:33N 33°37' W 118°59'1111.2
2014-Oct-22 05:33N 33°36' W 119°12'1612.2
2014-Oct-22 04:11N 33°33' W 119°32'914.5
2014-Oct-22 03:33N 33°32' W 119°43'1414.1
2014-Oct-22 02:33N 33°30' W 119°59'1715.5
2014-Oct-22 01:26N 33°30' W 120°20'14920.4
2014-Oct-21 18:08N 35°31' W 122°05'1220.3
2014-Oct-21 17:33N 35°41' W 122°12'2020.1
2014-Oct-21 16:33N 35°59' W 122°24'2020.3
2014-Oct-21 15:34N 36°17' W 122°36'2120.3
2014-Oct-21 14:33N 36°35' W 122°48'2120.9
2014-Oct-21 13:34N 36°53' W 123°01'2121.0
2014-Oct-21 12:34N 37°12' W 123°13'1817.7
2014-Oct-21 11:33N 37°29' W 123°09'1514.8
2014-Oct-21 10:33N 37°39' W 122°55'1110.6
2014-Oct-21 09:32N 37°44' W 122°43'7 7.3
2014-Oct-21 08:33N 37°47' W 122°35'1010.4
2014-Oct-21 07:33N 37°48' W 122°21'2 2.2
2014-Oct-21 06:33N 37°49' W 122°19'0 0.0
2014-Oct-21 05:32N 37°49' W 122°19'0 0.0
2014-Oct-21 04:32N 37°49' W 122°19'0 0.0
2014-Oct-21 03:32N 37°49' W 122°19'0 0.0
2014-Oct-21 02:32N 37°49' W 122°19'0 0.0
2014-Oct-21 01:32N 37°49' W 122°19'0 0.0
2014-Oct-21 00:32N 37°49' W 122°19'0 0.0
2014-Oct-20 23:32N 37°49' W 122°19'0 0.0
2014-Oct-20 22:32N 37°49' W 122°19'0 0.0
2014-Oct-20 21:32N 37°49' W 122°19'0 0.0
2014-Oct-20 20:29N 37°49' W 122°19'0 0.0
2014-Oct-20 19:29N 37°49' W 122°19'0 0.0
2014-Oct-20 18:32N 37°49' W 122°19'0 0.0
2014-Oct-20 17:32N 37°49' W 122°19'0 0.0
2014-Oct-20 16:32N 37°49' W 122°19'0 0.0
2014-Oct-20 15:32N 37°49' W 122°19'0 0.0
2014-Oct-20 14:32N 37°49' W 122°19'0 0.0
2014-Oct-20 13:32N 37°49' W 122°19'0 0.0
2014-Oct-20 12:32N 37°49' W 122°19'0 0.0
2014-Oct-20 11:32N 37°49' W 122°19'0 0.0
2014-Oct-20 10:32N 37°49' W 122°19'0 0.0
2014-Oct-20 09:32N 37°49' W 122°19'0 0.0
2014-Oct-20 08:32N 37°49' W 122°19'0 0.0
2014-Oct-20 07:32N 37°49' W 122°19'0 0.0
2014-Oct-20 06:32N 37°49' W 122°19'0 0.0
2014-Oct-20 05:29N 37°49' W 122°19'0 0.0
2014-Oct-20 04:32N 37°49' W 122°19'0 0.0
2014-Oct-20 03:32N 37°49' W 122°19'0 0.0
2014-Oct-20 02:32N 37°49' W 122°19'0 0.0
2014-Oct-20 01:32N 37°49' W 122°19'0 0.0
2014-Oct-20 00:32N 37°49' W 122°19'0 0.0
2014-Oct-19 23:32N 37°49' W 122°19'0 0.0
2014-Oct-19 22:32N 37°49' W 122°19'0 0.0
2014-Oct-19 21:32N 37°49' W 122°19'0 0.0
2014-Oct-19 20:32N 37°49' W 122°19'0 0.0
2014-Oct-19 19:32N 37°49' W 122°19'0 0.0
2014-Oct-19 18:32N 37°49' W 122°19'0 0.0
2014-Oct-19 17:32N 37°49' W 122°19'0 0.0
2014-Oct-19 16:32N 37°49' W 122°19'0 0.0
2014-Oct-19 15:32N 37°49' W 122°19'0 0.0
2014-Oct-19 14:32N 37°49' W 122°19'0 0.0
2014-Oct-19 13:32N 37°49' W 122°19'0 0.0
2014-Oct-19 12:32N 37°49' W 122°19'0 0.0
2014-Oct-19 11:32N 37°49' W 122°19'0 0.0
2014-Oct-19 10:32N 37°49' W 122°19'0 0.0
2014-Oct-19 09:32N 37°49' W 122°19'0 0.0
2014-Oct-19 08:32N 37°49' W 122°19'0 0.0
2014-Oct-19 07:32N 37°49' W 122°19'0 0.0
2014-Oct-19 06:32N 37°49' W 122°19'0 0.0
2014-Oct-19 05:32N 37°49' W 122°19'0 0.0
2014-Oct-19 04:29N 37°49' W 122°19'0 0.0
2014-Oct-19 03:32N 37°49' W 122°19'1 1.4
2014-Oct-19 02:33N 37°48' W 122°21'1111.3
2014-Oct-19 01:33N 37°47' W 122°35'1313.5
2014-Oct-19 00:34N 37°40' W 122°49'1615.6
2014-Oct-18 23:34N 37°32' W 123°06'1615.9
2014-Oct-18 22:33N 37°27' W 123°25'3114.7
2014-Oct-18 20:26N 37°51' W 123°51'1819.9
2014-Oct-18 19:30N 38°08' W 124°00'61416.6
2014-Oct-17 06:33N 48°20' W 125°08'1716.7
2014-Oct-17 05:33N 48°31' W 124°49'2120.7
2014-Oct-17 04:33N 48°24' W 124°20'2421.1
2014-Oct-17 03:26N 48°17' W 123°46'1718.7
2014-Oct-17 02:32N 48°09' W 123°23'1616.2
2014-Oct-17 01:33N 48°13' W 123°00'1918.6
2014-Oct-17 00:32N 48°01' W 122°37'1919.7
2014-Oct-16 23:33N 47°43' W 122°26'9 8.6
2014-Oct-16 22:33N 47°36' W 122°21'0 0.0
2014-Oct-16 21:31N 47°36' W 122°21'0 0.0
2014-Oct-16 20:09N 47°36' W 122°21'0 0.0
2014-Oct-16 19:31N 47°36' W 122°21'0 0.0
2014-Oct-16 18:24N 47°36' W 122°21'0 0.0
2014-Oct-16 17:24N 47°36' W 122°21'0 0.0
2014-Oct-16 16:33N 47°36' W 122°21'0 0.0
2014-Oct-16 15:28N 47°36' W 122°21'0 0.0
2014-Oct-16 14:30N 47°36' W 122°21'0 0.0
2014-Oct-16 13:30N 47°36' W 122°21'0 0.0
2014-Oct-16 12:30N 47°36' W 122°21'0 0.0
2014-Oct-16 11:09N 47°36' W 122°21'0 0.0
2014-Oct-16 10:24N 47°36' W 122°21'0 0.0
2014-Oct-16 09:25N 47°36' W 122°21'0 0.0
2014-Oct-16 08:09N 47°36' W 122°21'0 0.0
2014-Oct-16 07:18N 47°36' W 122°21'0 0.0
2014-Oct-16 06:18N 47°36' W 122°21'0 0.0
2014-Oct-16 05:12N 47°36' W 122°21'0 0.0
2014-Oct-16 04:33N 47°36' W 122°21'0 0.0
2014-Oct-16 03:33N 47°36' W 122°21'0 0.0
2014-Oct-16 02:24N 47°36' W 122°21'0 0.0
2014-Oct-16 01:33N 47°36' W 122°21'0 0.0
2014-Oct-16 00:33N 47°36' W 122°21'0 0.0
2014-Oct-15 23:33N 47°36' W 122°21'0 0.0
2014-Oct-15 22:30N 47°36' W 122°21'0 0.0
2014-Oct-15 21:12N 47°36' W 122°21'0 0.0
2014-Oct-15 20:09N 47°36' W 122°21'0 0.0
2014-Oct-15 19:15N 47°36' W 122°21'0 0.0
2014-Oct-15 18:24N 47°36' W 122°21'0 0.0
2014-Oct-15 17:09N 47°36' W 122°21'1 1.0
2014-Oct-15 16:33N 47°36' W 122°21'9 8.6
2014-Oct-15 15:33N 47°43' W 122°27'1616.1
2014-Oct-15 14:33N 47°58' W 122°36'1918.2
2014-Oct-15 13:32N 48°11' W 122°55'1818.7
2014-Oct-15 12:33N 48°10' W 123°23'1010.4
2014-Oct-15 11:33N 48°20' W 123°26'1211.7
2014-Oct-15 10:33N 48°28' W 123°12'1817.9
2014-Oct-15 09:33N 48°45' W 123°06'1515.1
2014-Oct-15 08:33N 49°00' W 123°09'1 1.3
2014-Oct-15 07:33N 49°01' W 123°09'0 0.0
2014-Oct-15 06:32N 49°01' W 123°09'0 0.0
2014-Oct-15 05:32N 49°01' W 123°09'0 0.0
2014-Oct-15 04:32N 49°01' W 123°09'0 0.0
2014-Oct-15 03:32N 49°01' W 123°09'0 0.0
2014-Oct-15 02:32N 49°01' W 123°09'0 0.0
2014-Oct-15 01:32N 49°01' W 123°09'0 0.0
2014-Oct-15 00:32N 49°01' W 123°09'0 0.0
2014-Oct-14 23:32N 49°01' W 123°09'0 0.0
2014-Oct-14 22:32N 49°01' W 123°09'0 0.0
2014-Oct-14 21:32N 49°01' W 123°09'0 0.0
2014-Oct-14 20:32N 49°01' W 123°09'0 0.0
2014-Oct-14 19:32N 49°01' W 123°09'0 0.0
2014-Oct-14 18:32N 49°01' W 123°09'0 0.0
2014-Oct-14 17:32N 49°01' W 123°09'0 0.0
2014-Oct-14 16:32N 49°01' W 123°09'0 0.0
2014-Oct-14 15:32N 49°01' W 123°09'0 0.0
2014-Oct-14 14:32N 49°01' W 123°09'0 0.0
2014-Oct-14 13:32N 49°01' W 123°09'0 0.0
2014-Oct-14 12:32N 49°01' W 123°09'0 0.0
2014-Oct-14 11:32N 49°01' W 123°09'0 0.0
2014-Oct-14 10:29N 49°01' W 123°09'0 0.0
2014-Oct-14 09:32N 49°01' W 123°09'0 0.0
2014-Oct-14 08:32N 49°01' W 123°09'0 0.0
2014-Oct-14 07:32N 49°01' W 123°09'0 0.0
2014-Oct-14 06:29N 49°01' W 123°09'0 0.0
2014-Oct-14 05:32N 49°01' W 123°09'0 0.0
2014-Oct-14 04:32N 49°01' W 123°09'0 0.0
2014-Oct-14 03:32N 49°01' W 123°09'0 0.0
2014-Oct-14 02:32N 49°01' W 123°09'0 0.0
2014-Oct-14 01:32N 49°01' W 123°09'  
Track history (hours):
 
Tides and Currents Weather Stations Pressure Air Temp Water Temp Dewpoint Dewpoint Depression Visibility Wind Speed Wind Dir Waves Ship Positions

MSC Poh Lin

Last reported at 2014-Oct-24 01:31 UTC. Time now 2014-Nov-01 09:03 UTC.
Position N 30°54' W 117°12'.
Warning: this ship's position is 8 days out of date.

Length 294 m; draft 13.5 m.

Type: Ship (hazmat cat A). MMSI: 357405000.

Date/timePositionNaut miles runAvg speedWind from/ knotsBaromVisibWave heightAir tempDewpointWater temp
2014-Oct-24 01:31N 30°54' W 117°12'1919.5
2014-Oct-24 00:33N 31°12' W 117°20'1919.5
2014-Oct-23 23:33N 31°30' W 117°27'1919.4
2014-Oct-23 22:33N 31°48' W 117°35'1919.2
2014-Oct-23 21:33N 32°07' W 117°41'1919.2
2014-Oct-23 20:33N 32°26' W 117°44'1817.6
2014-Oct-23 19:33N 32°44' W 117°46'1616.4
2014-Oct-23 18:33N 32°60' W 117°49'10 9.7
2014-Oct-23 17:33N 33°08' W 117°56'8 8.2
2014-Oct-23 16:33N 33°14' W 118°02'8 8.2
2014-Oct-23 15:33N 33°21' W 118°07'8 8.4
2014-Oct-23 14:33N 33°29' W 118°10'8 8.2
2014-Oct-23 13:33N 33°37' W 118°12'8 7.5
2014-Oct-23 12:33N 33°44' W 118°13'2 2.1
2014-Oct-23 11:33N 33°46' W 118°14'0 0.0
2014-Oct-23 10:33N 33°46' W 118°14'0 0.0
2014-Oct-23 09:32N 33°46' W 118°14'0 0.0
2014-Oct-23 08:32N 33°46' W 118°14'0 0.0
2014-Oct-23 07:32N 33°46' W 118°14'0 0.0
2014-Oct-23 06:32N 33°46' W 118°14'0 0.0
2014-Oct-23 05:32N 33°46' W 118°14'0 0.0
2014-Oct-23 04:32N 33°46' W 118°14'0 0.0
2014-Oct-23 03:32N 33°46' W 118°14'0 0.0
2014-Oct-23 02:32N 33°46' W 118°14'0 0.0
2014-Oct-23 01:32N 33°46' W 118°14'0 0.0
2014-Oct-23 00:32N 33°46' W 118°14'0 0.0
2014-Oct-22 23:32N 33°46' W 118°14'0 0.0
2014-Oct-22 22:32N 33°46' W 118°14'0 0.0
2014-Oct-22 21:32N 33°46' W 118°14'0 0.0
2014-Oct-22 20:32N 33°46' W 118°14'0 0.0
2014-Oct-22 19:32N 33°46' W 118°14'0 0.0
2014-Oct-22 18:23N 33°46' W 118°14'0 0.0
2014-Oct-22 17:32N 33°46' W 118°14'0 0.0
2014-Oct-22 16:32N 33°46' W 118°14'0 0.0
2014-Oct-22 15:32N 33°46' W 118°14'0 0.0
2014-Oct-22 14:32N 33°46' W 118°14'0 0.0
2014-Oct-22 13:32N 33°46' W 118°14'1 1.1
2014-Oct-22 12:33N 33°46' W 118°13'3 2.7
2014-Oct-22 11:33N 33°43' W 118°11'8 7.9
2014-Oct-22 10:32N 33°36' W 118°15'8 8.3
2014-Oct-22 09:33N 33°36' W 118°25'9 8.6
2014-Oct-22 08:34N 33°37' W 118°35'9 8.9
2014-Oct-22 07:33N 33°37' W 118°46'1110.9
2014-Oct-22 06:33N 33°37' W 118°59'1111.2
2014-Oct-22 05:33N 33°36' W 119°12'1612.2
2014-Oct-22 04:11N 33°33' W 119°32'914.5
2014-Oct-22 03:33N 33°32' W 119°43'1414.1
2014-Oct-22 02:33N 33°30' W 119°59'1715.5
2014-Oct-22 01:26N 33°30' W 120°20'14920.4
2014-Oct-21 18:08N 35°31' W 122°05'1220.3
2014-Oct-21 17:33N 35°41' W 122°12'2020.1
2014-Oct-21 16:33N 35°59' W 122°24'2020.3
2014-Oct-21 15:34N 36°17' W 122°36'2120.3
2014-Oct-21 14:33N 36°35' W 122°48'2120.9
2014-Oct-21 13:34N 36°53' W 123°01'2121.0
2014-Oct-21 12:34N 37°12' W 123°13'1817.7
2014-Oct-21 11:33N 37°29' W 123°09'1514.8
2014-Oct-21 10:33N 37°39' W 122°55'1110.6
2014-Oct-21 09:32N 37°44' W 122°43'7 7.3
2014-Oct-21 08:33N 37°47' W 122°35'1010.4
2014-Oct-21 07:33N 37°48' W 122°21'2 2.2
2014-Oct-21 06:33N 37°49' W 122°19'0 0.0
2014-Oct-21 05:32N 37°49' W 122°19'0 0.0
2014-Oct-21 04:32N 37°49' W 122°19'0 0.0
2014-Oct-21 03:32N 37°49' W 122°19'0 0.0
2014-Oct-21 02:32N 37°49' W 122°19'0 0.0
2014-Oct-21 01:32N 37°49' W 122°19'0 0.0
2014-Oct-21 00:32N 37°49' W 122°19'0 0.0
2014-Oct-20 23:32N 37°49' W 122°19'0 0.0
2014-Oct-20 22:32N 37°49' W 122°19'0 0.0
2014-Oct-20 21:32N 37°49' W 122°19'0 0.0
2014-Oct-20 20:29N 37°49' W 122°19'0 0.0
2014-Oct-20 19:29N 37°49' W 122°19'0 0.0
2014-Oct-20 18:32N 37°49' W 122°19'0 0.0
2014-Oct-20 17:32N 37°49' W 122°19'0 0.0
2014-Oct-20 16:32N 37°49' W 122°19'0 0.0
2014-Oct-20 15:32N 37°49' W 122°19'0 0.0
2014-Oct-20 14:32N 37°49' W 122°19'0 0.0
2014-Oct-20 13:32N 37°49' W 122°19'0 0.0
2014-Oct-20 12:32N 37°49' W 122°19'0 0.0
2014-Oct-20 11:32N 37°49' W 122°19'0 0.0
2014-Oct-20 10:32N 37°49' W 122°19'0 0.0
2014-Oct-20 09:32N 37°49' W 122°19'0 0.0
2014-Oct-20 08:32N 37°49' W 122°19'0 0.0
2014-Oct-20 07:32N 37°49' W 122°19'0 0.0
2014-Oct-20 06:32N 37°49' W 122°19'0 0.0
2014-Oct-20 05:29N 37°49' W 122°19'0 0.0
2014-Oct-20 04:32N 37°49' W 122°19'0 0.0
2014-Oct-20 03:32N 37°49' W 122°19'0 0.0
2014-Oct-20 02:32N 37°49' W 122°19'0 0.0
2014-Oct-20 01:32N 37°49' W 122°19'0 0.0
2014-Oct-20 00:32N 37°49' W 122°19'0 0.0
2014-Oct-19 23:32N 37°49' W 122°19'0 0.0
2014-Oct-19 22:32N 37°49' W 122°19'0 0.0
2014-Oct-19 21:32N 37°49' W 122°19'0 0.0
2014-Oct-19 20:32N 37°49' W 122°19'0 0.0
2014-Oct-19 19:32N 37°49' W 122°19'0 0.0
2014-Oct-19 18:32N 37°49' W 122°19'0 0.0
2014-Oct-19 17:32N 37°49' W 122°19'0 0.0
2014-Oct-19 16:32N 37°49' W 122°19'0 0.0
2014-Oct-19 15:32N 37°49' W 122°19'0 0.0
2014-Oct-19 14:32N 37°49' W 122°19'0 0.0
2014-Oct-19 13:32N 37°49' W 122°19'0 0.0
2014-Oct-19 12:32N 37°49' W 122°19'0 0.0
2014-Oct-19 11:32N 37°49' W 122°19'0 0.0
2014-Oct-19 10:32N 37°49' W 122°19'0 0.0
2014-Oct-19 09:32N 37°49' W 122°19'0 0.0
2014-Oct-19 08:32N 37°49' W 122°19'0 0.0
2014-Oct-19 07:32N 37°49' W 122°19'0 0.0
2014-Oct-19 06:32N 37°49' W 122°19'0 0.0
2014-Oct-19 05:32N 37°49' W 122°19'0 0.0
2014-Oct-19 04:29N 37°49' W 122°19'0 0.0
2014-Oct-19 03:32N 37°49' W 122°19'1 1.4
2014-Oct-19 02:33N 37°48' W 122°21'1111.3
2014-Oct-19 01:33N 37°47' W 122°35'1313.5
2014-Oct-19 00:34N 37°40' W 122°49'1615.6
2014-Oct-18 23:34N 37°32' W 123°06'1615.9
2014-Oct-18 22:33N 37°27' W 123°25'3114.7
2014-Oct-18 20:26N 37°51' W 123°51'1819.9
2014-Oct-18 19:30N 38°08' W 124°00'61416.6
2014-Oct-17 06:33N 48°20' W 125°08'1716.7
2014-Oct-17 05:33N 48°31' W 124°49'2120.7
2014-Oct-17 04:33N 48°24' W 124°20'2421.1
2014-Oct-17 03:26N 48°17' W 123°46'1718.7
2014-Oct-17 02:32N 48°09' W 123°23'1616.2
2014-Oct-17 01:33N 48°13' W 123°00'1918.6
2014-Oct-17 00:32N 48°01' W 122°37'1919.7
2014-Oct-16 23:33N 47°43' W 122°26'9 8.6
2014-Oct-16 22:33N 47°36' W 122°21'0 0.0
2014-Oct-16 21:31N 47°36' W 122°21'0 0.0
2014-Oct-16 20:09N 47°36' W 122°21'0 0.0
2014-Oct-16 19:31N 47°36' W 122°21'0 0.0
2014-Oct-16 18:24N 47°36' W 122°21'0 0.0
2014-Oct-16 17:24N 47°36' W 122°21'0 0.0
2014-Oct-16 16:33N 47°36' W 122°21'0 0.0
2014-Oct-16 15:28N 47°36' W 122°21'0 0.0
2014-Oct-16 14:30N 47°36' W 122°21'0 0.0
2014-Oct-16 13:30N 47°36' W 122°21'0 0.0
2014-Oct-16 12:30N 47°36' W 122°21'0 0.0
2014-Oct-16 11:09N 47°36' W 122°21'0 0.0
2014-Oct-16 10:24N 47°36' W 122°21'0 0.0
2014-Oct-16 09:25N 47°36' W 122°21'0 0.0
2014-Oct-16 08:09N 47°36' W 122°21'0 0.0
2014-Oct-16 07:18N 47°36' W 122°21'0 0.0
2014-Oct-16 06:18N 47°36' W 122°21'0 0.0
2014-Oct-16 05:12N 47°36' W 122°21'0 0.0
2014-Oct-16 04:33N 47°36' W 122°21'0 0.0
2014-Oct-16 03:33N 47°36' W 122°21'0 0.0
2014-Oct-16 02:24N 47°36' W 122°21'0 0.0
2014-Oct-16 01:33N 47°36' W 122°21'0 0.0
2014-Oct-16 00:33N 47°36' W 122°21'0 0.0
2014-Oct-15 23:33N 47°36' W 122°21'0 0.0
2014-Oct-15 22:30N 47°36' W 122°21'0 0.0
2014-Oct-15 21:12N 47°36' W 122°21'0 0.0
2014-Oct-15 20:09N 47°36' W 122°21'0 0.0
2014-Oct-15 19:15N 47°36' W 122°21'0 0.0
2014-Oct-15 18:24N 47°36' W 122°21'0 0.0
2014-Oct-15 17:09N 47°36' W 122°21'1 1.0
2014-Oct-15 16:33N 47°36' W 122°21'9 8.6
2014-Oct-15 15:33N 47°43' W 122°27'1616.1
2014-Oct-15 14:33N 47°58' W 122°36'1918.2
2014-Oct-15 13:32N 48°11' W 122°55'1818.7
2014-Oct-15 12:33N 48°10' W 123°23'1010.4
2014-Oct-15 11:33N 48°20' W 123°26'1211.7
2014-Oct-15 10:33N 48°28' W 123°12'1817.9
2014-Oct-15 09:33N 48°45' W 123°06'1515.1
2014-Oct-15 08:33N 49°00' W 123°09'1 1.3
2014-Oct-15 07:33N 49°01' W 123°09'0 0.0
2014-Oct-15 06:32N 49°01' W 123°09'0 0.0
2014-Oct-15 05:32N 49°01' W 123°09'0 0.0
2014-Oct-15 04:32N 49°01' W 123°09'0 0.0
2014-Oct-15 03:32N 49°01' W 123°09'0 0.0
2014-Oct-15 02:32N 49°01' W 123°09'0 0.0
2014-Oct-15 01:32N 49°01' W 123°09'0 0.0
2014-Oct-15 00:32N 49°01' W 123°09'0 0.0
2014-Oct-14 23:32N 49°01' W 123°09'0 0.0
2014-Oct-14 22:32N 49°01' W 123°09'0 0.0
2014-Oct-14 21:32N 49°01' W 123°09'0 0.0
2014-Oct-14 20:32N 49°01' W 123°09'0 0.0
2014-Oct-14 19:32N 49°01' W 123°09'0 0.0
2014-Oct-14 18:32N 49°01' W 123°09'0 0.0
2014-Oct-14 17:32N 49°01' W 123°09'0 0.0
2014-Oct-14 16:32N 49°01' W 123°09'0 0.0
2014-Oct-14 15:32N 49°01' W 123°09'0 0.0
2014-Oct-14 14:32N 49°01' W 123°09'0 0.0
2014-Oct-14 13:32N 49°01' W 123°09'0 0.0
2014-Oct-14 12:32N 49°01' W 123°09'0 0.0
2014-Oct-14 11:32N 49°01' W 123°09'0 0.0
2014-Oct-14 10:29N 49°01' W 123°09'0 0.0
2014-Oct-14 09:32N 49°01' W 123°09'0 0.0
2014-Oct-14 08:32N 49°01' W 123°09'0 0.0
2014-Oct-14 07:32N 49°01' W 123°09'0 0.0
2014-Oct-14 06:29N 49°01' W 123°09'0 0.0
2014-Oct-14 05:32N 49°01' W 123°09'0 0.0
2014-Oct-14 04:32N 49°01' W 123°09'0 0.0
2014-Oct-14 03:32N 49°01' W 123°09'0 0.0
2014-Oct-14 02:32N 49°01' W 123°09'0 0.0
2014-Oct-14 01:32N 49°01' W 123°09'  

Dump ship's entire track history